sensor_id;sensor_type;location;lat;lon;timestamp;P1;durP1;ratioP1;P2;durP2;ratioP2
65271;SDS011;51868;48.812;8.198;2022-09-21T00:01:17;13.00;;;3.80;;
65271;SDS011;51868;48.812;8.198;2022-09-21T00:03:50;61.67;;;17.45;;
65271;SDS011;51868;48.812;8.198;2022-09-21T00:06:21;31.35;;;9.27;;
65271;SDS011;51868;48.812;8.198;2022-09-21T00:08:53;24.23;;;7.93;;
65271;SDS011;51868;48.812;8.198;2022-09-21T00:11:22;7.30;;;2.75;;
65271;SDS011;51868;48.812;8.198;2022-09-21T00:13:55;5.60;;;2.05;;
65271;SDS011;51868;48.812;8.198;2022-09-21T00:16:26;5.38;;;1.67;;
65271;SDS011;51868;48.812;8.198;2022-09-21T00:18:55;5.03;;;1.60;;
65271;SDS011;51868;48.812;8.198;2022-09-21T00:21:24;4.68;;;1.80;;
65271;SDS011;51868;48.812;8.198;2022-09-21T00:23:54;2.53;;;1.52;;
65271;SDS011;51868;48.812;8.198;2022-09-21T00:26:25;2.42;;;1.60;;
65271;SDS011;51868;48.812;8.198;2022-09-21T00:28:54;4.78;;;1.70;;
65271;SDS011;51868;48.812;8.198;2022-09-21T00:31:25;2.60;;;1.60;;
65271;SDS011;51868;48.812;8.198;2022-09-21T00:33:53;3.33;;;1.83;;
65271;SDS011;51868;48.812;8.198;2022-09-21T00:36:22;6.63;;;1.70;;
65271;SDS011;51868;48.812;8.198;2022-09-21T00:38:52;3.22;;;1.50;;
65271;SDS011;51868;48.812;8.198;2022-09-21T00:41:23;2.65;;;1.67;;
65271;SDS011;51868;48.812;8.198;2022-09-21T00:44:18;2.08;;;1.63;;
65271;SDS011;51868;48.812;8.198;2022-09-21T00:46:50;2.30;;;1.48;;
65271;SDS011;51868;48.812;8.198;2022-09-21T00:49:19;2.40;;;1.52;;
65271;SDS011;51868;48.812;8.198;2022-09-21T00:51:51;2.67;;;1.40;;
65271;SDS011;51868;48.812;8.198;2022-09-21T00:54:20;9.88;;;2.75;;
65271;SDS011;51868;48.812;8.198;2022-09-21T00:56:52;5.00;;;1.52;;
65271;SDS011;51868;48.812;8.198;2022-09-21T00:59:21;7.25;;;2.88;;
65271;SDS011;51868;48.812;8.198;2022-09-21T01:01:55;2.58;;;1.60;;
65271;SDS011;51868;48.812;8.198;2022-09-21T01:04:24;3.90;;;1.58;;
65271;SDS011;51868;48.812;8.198;2022-09-21T01:06:54;2.95;;;2.10;;
65271;SDS011;51868;48.812;8.198;2022-09-21T01:09:24;5.40;;;1.83;;
65271;SDS011;51868;48.812;8.198;2022-09-21T01:11:55;4.22;;;2.05;;
65271;SDS011;51868;48.812;8.198;2022-09-21T01:14:48;4.38;;;1.60;;
65271;SDS011;51868;48.812;8.198;2022-09-21T01:17:25;5.35;;;2.47;;
65271;SDS011;51868;48.812;8.198;2022-09-21T01:20:09;2.95;;;1.77;;
65271;SDS011;51868;48.812;8.198;2022-09-21T01:22:57;2.67;;;1.92;;
65271;SDS011;51868;48.812;8.198;2022-09-21T01:25:40;3.30;;;1.65;;
65271;SDS011;51868;48.812;8.198;2022-09-21T01:28:27;4.85;;;2.00;;
65271;SDS011;51868;48.812;8.198;2022-09-21T01:31:08;5.55;;;2.03;;
65271;SDS011;51868;48.812;8.198;2022-09-21T01:33:43;4.40;;;2.10;;
65271;SDS011;51868;48.812;8.198;2022-09-21T01:36:14;3.97;;;1.83;;
65271;SDS011;51868;48.812;8.198;2022-09-21T01:38:46;5.32;;;1.73;;
65271;SDS011;51868;48.812;8.198;2022-09-21T01:41:17;2.15;;;1.50;;
65271;SDS011;51868;48.812;8.198;2022-09-21T01:43:49;2.00;;;1.70;;
65271;SDS011;51868;48.812;8.198;2022-09-21T01:46:24;3.42;;;1.67;;
65271;SDS011;51868;48.812;8.198;2022-09-21T01:48:56;11.98;;;2.00;;
65271;SDS011;51868;48.812;8.198;2022-09-21T01:51:30;3.13;;;1.75;;
65271;SDS011;51868;48.812;8.198;2022-09-21T01:54:01;3.22;;;2.10;;
65271;SDS011;51868;48.812;8.198;2022-09-21T01:56:32;1.52;;;1.40;;
65271;SDS011;51868;48.812;8.198;2022-09-21T01:59:07;2.92;;;1.77;;
65271;SDS011;51868;48.812;8.198;2022-09-21T02:01:42;4.72;;;2.03;;
65271;SDS011;51868;48.812;8.198;2022-09-21T02:04:15;4.68;;;3.03;;
65271;SDS011;51868;48.812;8.198;2022-09-21T02:06:44;3.30;;;2.00;;
65271;SDS011;51868;48.812;8.198;2022-09-21T02:09:13;3.05;;;2.15;;
65271;SDS011;51868;48.812;8.198;2022-09-21T02:11:43;3.08;;;1.80;;
65271;SDS011;51868;48.812;8.198;2022-09-21T02:14:12;8.07;;;2.10;;
65271;SDS011;51868;48.812;8.198;2022-09-21T02:16:45;4.95;;;1.70;;
65271;SDS011;51868;48.812;8.198;2022-09-21T02:19:24;2.58;;;1.88;;
65271;SDS011;51868;48.812;8.198;2022-09-21T02:22:01;2.22;;;1.73;;
65271;SDS011;51868;48.812;8.198;2022-09-21T02:24:34;3.10;;;1.70;;
65271;SDS011;51868;48.812;8.198;2022-09-21T02:27:09;4.40;;;1.60;;
65271;SDS011;51868;48.812;8.198;2022-09-21T02:29:46;11.00;;;2.80;;
65271;SDS011;51868;48.812;8.198;2022-09-21T02:32:20;5.68;;;1.85;;
65271;SDS011;51868;48.812;8.198;2022-09-21T02:34:58;4.40;;;2.05;;
65271;SDS011;51868;48.812;8.198;2022-09-21T02:37:35;3.95;;;2.00;;
65271;SDS011;51868;48.812;8.198;2022-09-21T02:40:09;3.67;;;1.92;;
65271;SDS011;51868;48.812;8.198;2022-09-21T02:42:48;2.67;;;1.77;;
65271;SDS011;51868;48.812;8.198;2022-09-21T02:45:20;2.65;;;1.90;;
65271;SDS011;51868;48.812;8.198;2022-09-21T02:47:53;3.05;;;2.20;;
65271;SDS011;51868;48.812;8.198;2022-09-21T02:50:30;2.95;;;2.05;;
65271;SDS011;51868;48.812;8.198;2022-09-21T02:53:02;3.88;;;2.10;;
65271;SDS011;51868;48.812;8.198;2022-09-21T02:55:33;3.83;;;2.40;;
65271;SDS011;51868;48.812;8.198;2022-09-21T02:58:02;3.88;;;2.28;;
65271;SDS011;51868;48.812;8.198;2022-09-21T03:00:32;4.65;;;1.88;;
65271;SDS011;51868;48.812;8.198;2022-09-21T03:03:04;6.97;;;2.28;;
65271;SDS011;51868;48.812;8.198;2022-09-21T03:05:42;4.13;;;2.50;;
65271;SDS011;51868;48.812;8.198;2022-09-21T03:08:17;16.95;;;2.60;;
65271;SDS011;51868;48.812;8.198;2022-09-21T03:10:47;8.73;;;2.70;;
65271;SDS011;51868;48.812;8.198;2022-09-21T03:13:16;4.47;;;2.22;;
65271;SDS011;51868;48.812;8.198;2022-09-21T03:15:46;4.78;;;2.33;;
65271;SDS011;51868;48.812;8.198;2022-09-21T03:18:15;6.22;;;2.50;;
65271;SDS011;51868;48.812;8.198;2022-09-21T03:20:43;3.80;;;2.13;;
65271;SDS011;51868;48.812;8.198;2022-09-21T03:23:14;5.18;;;2.90;;
65271;SDS011;51868;48.812;8.198;2022-09-21T03:25:42;5.05;;;2.45;;
65271;SDS011;51868;48.812;8.198;2022-09-21T03:28:10;8.80;;;3.05;;
65271;SDS011;51868;48.812;8.198;2022-09-21T03:30:39;5.47;;;2.83;;
65271;SDS011;51868;48.812;8.198;2022-09-21T03:33:07;6.07;;;2.92;;
65271;SDS011;51868;48.812;8.198;2022-09-21T03:35:36;3.70;;;2.42;;
65271;SDS011;51868;48.812;8.198;2022-09-21T03:38:03;4.65;;;2.83;;
65271;SDS011;51868;48.812;8.198;2022-09-21T03:40:32;4.93;;;2.30;;
65271;SDS011;51868;48.812;8.198;2022-09-21T03:42:59;2.63;;;2.20;;
65271;SDS011;51868;48.812;8.198;2022-09-21T03:45:27;4.13;;;2.80;;
65271;SDS011;51868;48.812;8.198;2022-09-21T03:47:55;8.25;;;2.83;;
65271;SDS011;51868;48.812;8.198;2022-09-21T03:50:24;4.35;;;2.55;;
65271;SDS011;51868;48.812;8.198;2022-09-21T03:52:54;4.97;;;3.55;;
65271;SDS011;51868;48.812;8.198;2022-09-21T03:55:23;6.93;;;3.35;;
65271;SDS011;51868;48.812;8.198;2022-09-21T03:57:51;4.72;;;2.35;;
65271;SDS011;51868;48.812;8.198;2022-09-21T04:00:19;3.25;;;2.20;;
65271;SDS011;51868;48.812;8.198;2022-09-21T04:02:47;7.05;;;2.05;;
65271;SDS011;51868;48.812;8.198;2022-09-21T04:05:15;5.47;;;2.88;;
65271;SDS011;51868;48.812;8.198;2022-09-21T04:07:44;9.02;;;3.50;;
65271;SDS011;51868;48.812;8.198;2022-09-21T04:10:14;5.25;;;2.60;;
65271;SDS011;51868;48.812;8.198;2022-09-21T04:12:43;7.53;;;2.95;;
65271;SDS011;51868;48.812;8.198;2022-09-21T04:15:15;4.93;;;2.60;;
65271;SDS011;51868;48.812;8.198;2022-09-21T04:17:45;5.78;;;2.22;;
65271;SDS011;51868;48.812;8.198;2022-09-21T04:20:13;3.50;;;2.45;;
65271;SDS011;51868;48.812;8.198;2022-09-21T04:22:41;3.85;;;2.20;;
65271;SDS011;51868;48.812;8.198;2022-09-21T04:25:10;8.50;;;3.35;;
65271;SDS011;51868;48.812;8.198;2022-09-21T04:27:39;4.22;;;2.45;;
65271;SDS011;51868;48.812;8.198;2022-09-21T04:30:09;5.13;;;2.78;;
65271;SDS011;51868;48.812;8.198;2022-09-21T04:32:38;3.72;;;2.33;;
65271;SDS011;51868;48.812;8.198;2022-09-21T04:35:09;5.53;;;2.50;;
65271;SDS011;51868;48.812;8.198;2022-09-21T04:37:37;3.05;;;2.20;;
65271;SDS011;51868;48.812;8.198;2022-09-21T04:40:10;5.55;;;2.60;;
65271;SDS011;51868;48.812;8.198;2022-09-21T04:42:39;4.00;;;2.33;;
65271;SDS011;51868;48.812;8.198;2022-09-21T04:45:07;5.60;;;2.60;;
65271;SDS011;51868;48.812;8.198;2022-09-21T04:47:36;5.72;;;2.85;;
65271;SDS011;51868;48.812;8.198;2022-09-21T04:50:04;3.15;;;2.38;;
65271;SDS011;51868;48.812;8.198;2022-09-21T04:52:32;3.72;;;2.45;;
65271;SDS011;51868;48.812;8.198;2022-09-21T04:55:00;3.80;;;2.58;;
65271;SDS011;51868;48.812;8.198;2022-09-21T04:57:27;8.00;;;2.97;;
65271;SDS011;51868;48.812;8.198;2022-09-21T04:59:56;4.00;;;2.65;;
65271;SDS011;51868;48.812;8.198;2022-09-21T05:02:24;4.78;;;2.75;;
65271;SDS011;51868;48.812;8.198;2022-09-21T05:04:52;4.72;;;3.03;;
65271;SDS011;51868;48.812;8.198;2022-09-21T05:07:19;6.07;;;3.15;;
65271;SDS011;51868;48.812;8.198;2022-09-21T05:09:47;4.15;;;2.80;;
65271;SDS011;51868;48.812;8.198;2022-09-21T05:12:29;3.58;;;2.70;;
65271;SDS011;51868;48.812;8.198;2022-09-21T05:14:58;5.18;;;3.05;;
65271;SDS011;51868;48.812;8.198;2022-09-21T05:17:26;3.67;;;2.70;;
65271;SDS011;51868;48.812;8.198;2022-09-21T05:19:54;3.83;;;3.15;;
65271;SDS011;51868;48.812;8.198;2022-09-21T05:22:22;5.70;;;2.72;;
65271;SDS011;51868;48.812;8.198;2022-09-21T05:24:50;4.28;;;2.72;;
65271;SDS011;51868;48.812;8.198;2022-09-21T05:27:18;6.20;;;3.05;;
65271;SDS011;51868;48.812;8.198;2022-09-21T05:29:45;5.03;;;2.60;;
65271;SDS011;51868;48.812;8.198;2022-09-21T05:32:15;10.70;;;2.90;;
65271;SDS011;51868;48.812;8.198;2022-09-21T05:34:59;4.45;;;2.70;;
65271;SDS011;51868;48.812;8.198;2022-09-21T05:37:38;3.88;;;3.00;;
65271;SDS011;51868;48.812;8.198;2022-09-21T05:40:12;6.28;;;3.70;;
65271;SDS011;51868;48.812;8.198;2022-09-21T05:42:40;6.50;;;3.50;;
65271;SDS011;51868;48.812;8.198;2022-09-21T05:45:11;8.40;;;3.20;;
65271;SDS011;51868;48.812;8.198;2022-09-21T05:47:45;4.97;;;2.60;;
65271;SDS011;51868;48.812;8.198;2022-09-21T05:50:24;5.13;;;3.28;;
65271;SDS011;51868;48.812;8.198;2022-09-21T05:53:03;4.60;;;2.83;;
65271;SDS011;51868;48.812;8.198;2022-09-21T05:55:44;7.38;;;3.05;;
65271;SDS011;51868;48.812;8.198;2022-09-21T05:58:20;4.88;;;2.85;;
65271;SDS011;51868;48.812;8.198;2022-09-21T06:00:56;3.90;;;2.67;;
65271;SDS011;51868;48.812;8.198;2022-09-21T06:03:43;6.80;;;3.28;;
65271;SDS011;51868;48.812;8.198;2022-09-21T06:06:18;6.20;;;3.05;;
65271;SDS011;51868;48.812;8.198;2022-09-21T06:08:46;5.50;;;3.20;;
65271;SDS011;51868;48.812;8.198;2022-09-21T06:11:14;6.05;;;3.10;;
65271;SDS011;51868;48.812;8.198;2022-09-21T06:13:42;5.32;;;3.50;;
65271;SDS011;51868;48.812;8.198;2022-09-21T06:16:12;3.58;;;2.90;;
65271;SDS011;51868;48.812;8.198;2022-09-21T06:18:41;3.88;;;3.10;;
65271;SDS011;51868;48.812;8.198;2022-09-21T06:21:13;8.32;;;3.30;;
65271;SDS011;51868;48.812;8.198;2022-09-21T06:23:41;5.65;;;3.15;;
65271;SDS011;51868;48.812;8.198;2022-09-21T06:26:09;7.13;;;3.38;;
65271;SDS011;51868;48.812;8.198;2022-09-21T06:28:36;6.60;;;3.67;;
65271;SDS011;51868;48.812;8.198;2022-09-21T06:31:06;6.88;;;3.88;;
65271;SDS011;51868;48.812;8.198;2022-09-21T06:33:34;6.63;;;3.92;;
65271;SDS011;51868;48.812;8.198;2022-09-21T06:36:05;7.00;;;3.67;;
65271;SDS011;51868;48.812;8.198;2022-09-21T06:38:33;4.82;;;3.75;;
65271;SDS011;51868;48.812;8.198;2022-09-21T06:41:02;7.18;;;3.47;;
65271;SDS011;51868;48.812;8.198;2022-09-21T06:43:30;5.85;;;4.20;;
65271;SDS011;51868;48.812;8.198;2022-09-21T06:45:59;8.27;;;5.28;;
65271;SDS011;51868;48.812;8.198;2022-09-21T06:48:28;10.88;;;4.68;;
65271;SDS011;51868;48.812;8.198;2022-09-21T06:50:57;6.97;;;3.75;;
65271;SDS011;51868;48.812;8.198;2022-09-21T06:53:27;6.68;;;3.78;;
65271;SDS011;51868;48.812;8.198;2022-09-21T06:55:58;7.38;;;3.90;;
65271;SDS011;51868;48.812;8.198;2022-09-21T06:58:27;6.75;;;3.55;;
65271;SDS011;51868;48.812;8.198;2022-09-21T07:00:54;5.88;;;3.78;;
65271;SDS011;51868;48.812;8.198;2022-09-21T07:03:22;7.75;;;3.38;;
65271;SDS011;51868;48.812;8.198;2022-09-21T07:05:50;8.20;;;4.32;;
65271;SDS011;51868;48.812;8.198;2022-09-21T07:08:21;10.10;;;3.50;;
65271;SDS011;51868;48.812;8.198;2022-09-21T07:11:10;6.05;;;3.70;;
65271;SDS011;51868;48.812;8.198;2022-09-21T07:13:39;10.43;;;3.80;;
65271;SDS011;51868;48.812;8.198;2022-09-21T07:16:07;4.80;;;3.38;;
65271;SDS011;51868;48.812;8.198;2022-09-21T07:18:36;9.23;;;3.30;;
65271;SDS011;51868;48.812;8.198;2022-09-21T07:21:09;5.97;;;3.38;;
65271;SDS011;51868;48.812;8.198;2022-09-21T07:23:37;5.68;;;3.20;;
65271;SDS011;51868;48.812;8.198;2022-09-21T07:26:06;5.72;;;3.40;;
65271;SDS011;51868;48.812;8.198;2022-09-21T07:28:37;16.30;;;3.10;;
65271;SDS011;51868;48.812;8.198;2022-09-21T07:31:05;7.45;;;3.22;;
65271;SDS011;51868;48.812;8.198;2022-09-21T07:33:34;6.90;;;2.88;;
65271;SDS011;51868;48.812;8.198;2022-09-21T07:36:04;5.15;;;3.63;;
65271;SDS011;51868;48.812;8.198;2022-09-21T07:38:36;11.70;;;3.95;;
65271;SDS011;51868;48.812;8.198;2022-09-21T07:41:06;8.52;;;4.00;;
65271;SDS011;51868;48.812;8.198;2022-09-21T07:43:36;7.30;;;4.30;;
65271;SDS011;51868;48.812;8.198;2022-09-21T07:46:05;10.32;;;4.57;;
65271;SDS011;51868;48.812;8.198;2022-09-21T07:48:33;8.45;;;4.07;;
65271;SDS011;51868;48.812;8.198;2022-09-21T07:51:01;9.43;;;4.38;;
65271;SDS011;51868;48.812;8.198;2022-09-21T07:53:31;7.97;;;3.83;;
65271;SDS011;51868;48.812;8.198;2022-09-21T07:55:59;6.93;;;4.25;;
65271;SDS011;51868;48.812;8.198;2022-09-21T07:58:28;9.00;;;3.83;;
65271;SDS011;51868;48.812;8.198;2022-09-21T08:01:15;8.02;;;4.03;;
65271;SDS011;51868;48.812;8.198;2022-09-21T08:03:43;6.45;;;3.90;;
65271;SDS011;51868;48.812;8.198;2022-09-21T08:06:11;6.90;;;4.25;;
65271;SDS011;51868;48.812;8.198;2022-09-21T08:08:39;5.25;;;4.47;;
65271;SDS011;51868;48.812;8.198;2022-09-21T08:11:08;5.65;;;4.10;;
65271;SDS011;51868;48.812;8.198;2022-09-21T08:13:37;6.97;;;4.50;;
65271;SDS011;51868;48.812;8.198;2022-09-21T08:16:04;6.28;;;3.72;;
65271;SDS011;51868;48.812;8.198;2022-09-21T08:18:36;8.98;;;3.78;;
65271;SDS011;51868;48.812;8.198;2022-09-21T08:21:06;12.68;;;4.13;;
65271;SDS011;51868;48.812;8.198;2022-09-21T08:23:37;7.72;;;5.18;;
65271;SDS011;51868;48.812;8.198;2022-09-21T08:26:09;9.43;;;4.30;;
65271;SDS011;51868;48.812;8.198;2022-09-21T08:28:44;7.60;;;3.75;;
65271;SDS011;51868;48.812;8.198;2022-09-21T08:31:14;8.82;;;3.60;;
65271;SDS011;51868;48.812;8.198;2022-09-21T08:33:46;6.43;;;3.60;;
65271;SDS011;51868;48.812;8.198;2022-09-21T08:36:17;7.32;;;3.60;;
65271;SDS011;51868;48.812;8.198;2022-09-21T08:38:45;7.47;;;3.40;;
65271;SDS011;51868;48.812;8.198;2022-09-21T08:41:15;5.60;;;3.58;;
65271;SDS011;51868;48.812;8.198;2022-09-21T08:43:46;4.68;;;3.10;;
65271;SDS011;51868;48.812;8.198;2022-09-21T08:46:19;7.55;;;3.35;;
65271;SDS011;51868;48.812;8.198;2022-09-21T08:48:52;7.75;;;3.47;;
65271;SDS011;51868;48.812;8.198;2022-09-21T08:51:24;6.35;;;3.20;;
65271;SDS011;51868;48.812;8.198;2022-09-21T08:53:56;8.43;;;3.53;;
65271;SDS011;51868;48.812;8.198;2022-09-21T08:56:31;5.75;;;3.10;;
65271;SDS011;51868;48.812;8.198;2022-09-21T08:59:21;6.60;;;3.28;;
65271;SDS011;51868;48.812;8.198;2022-09-21T09:01:52;4.53;;;3.05;;
65271;SDS011;51868;48.812;8.198;2022-09-21T09:04:33;4.88;;;2.90;;
65271;SDS011;51868;48.812;8.198;2022-09-21T09:07:20;4.60;;;3.00;;
65271;SDS011;51868;48.812;8.198;2022-09-21T09:09:59;5.15;;;2.75;;
65271;SDS011;51868;48.812;8.198;2022-09-21T09:12:37;5.82;;;2.45;;
65271;SDS011;51868;48.812;8.198;2022-09-21T09:15:21;10.70;;;2.78;;
65271;SDS011;51868;48.812;8.198;2022-09-21T09:18:03;4.68;;;2.40;;
65271;SDS011;51868;48.812;8.198;2022-09-21T09:20:42;5.75;;;2.78;;
65271;SDS011;51868;48.812;8.198;2022-09-21T09:23:16;4.75;;;2.30;;
65271;SDS011;51868;48.812;8.198;2022-09-21T09:25:48;4.13;;;2.00;;
65271;SDS011;51868;48.812;8.198;2022-09-21T09:28:26;3.45;;;2.72;;
65271;SDS011;51868;48.812;8.198;2022-09-21T09:30:58;3.75;;;1.95;;
65271;SDS011;51868;48.812;8.198;2022-09-21T09:33:34;4.78;;;2.17;;
65271;SDS011;51868;48.812;8.198;2022-09-21T09:36:15;6.07;;;2.42;;
65271;SDS011;51868;48.812;8.198;2022-09-21T09:39:00;3.65;;;1.63;;
65271;SDS011;51868;48.812;8.198;2022-09-21T09:41:42;3.33;;;1.83;;
65271;SDS011;51868;48.812;8.198;2022-09-21T09:44:23;3.60;;;1.70;;
65271;SDS011;51868;48.812;8.198;2022-09-21T09:47:06;3.28;;;1.83;;
65271;SDS011;51868;48.812;8.198;2022-09-21T09:49:52;5.15;;;1.92;;
65271;SDS011;51868;48.812;8.198;2022-09-21T09:52:31;2.75;;;1.85;;
65271;SDS011;51868;48.812;8.198;2022-09-21T09:54:59;4.25;;;1.75;;
65271;SDS011;51868;48.812;8.198;2022-09-21T09:57:32;3.53;;;1.80;;
65271;SDS011;51868;48.812;8.198;2022-09-21T10:00:01;2.28;;;1.45;;
65271;SDS011;51868;48.812;8.198;2022-09-21T10:02:35;1.58;;;1.00;;
65271;SDS011;51868;48.812;8.198;2022-09-21T10:05:18;3.60;;;1.20;;
65271;SDS011;51868;48.812;8.198;2022-09-21T10:07:51;4.07;;;1.40;;
65271;SDS011;51868;48.812;8.198;2022-09-21T10:10:31;3.33;;;1.38;;
65271;SDS011;51868;48.812;8.198;2022-09-21T10:13:04;4.97;;;1.40;;
65271;SDS011;51868;48.812;8.198;2022-09-21T10:15:43;2.08;;;1.25;;
65271;SDS011;51868;48.812;8.198;2022-09-21T10:18:17;3.80;;;1.30;;
65271;SDS011;51868;48.812;8.198;2022-09-21T10:20:54;7.25;;;1.38;;
65271;SDS011;51868;48.812;8.198;2022-09-21T10:23:30;5.30;;;1.50;;
65271;SDS011;51868;48.812;8.198;2022-09-21T10:25:59;3.45;;;1.38;;
65271;SDS011;51868;48.812;8.198;2022-09-21T10:28:30;5.70;;;1.60;;
65271;SDS011;51868;48.812;8.198;2022-09-21T10:31:09;6.68;;;1.45;;
65271;SDS011;51868;48.812;8.198;2022-09-21T10:33:46;6.07;;;1.50;;
65271;SDS011;51868;48.812;8.198;2022-09-21T10:36:30;3.25;;;1.35;;
65271;SDS011;51868;48.812;8.198;2022-09-21T10:39:14;3.17;;;1.10;;
65271;SDS011;51868;48.812;8.198;2022-09-21T10:41:47;5.05;;;1.48;;
65271;SDS011;51868;48.812;8.198;2022-09-21T10:44:16;2.77;;;1.27;;
65271;SDS011;51868;48.812;8.198;2022-09-21T10:46:45;5.10;;;1.40;;
65271;SDS011;51868;48.812;8.198;2022-09-21T10:49:17;3.22;;;1.10;;
65271;SDS011;51868;48.812;8.198;2022-09-21T10:51:48;2.67;;;1.40;;
65271;SDS011;51868;48.812;8.198;2022-09-21T10:54:25;1.38;;;1.05;;
65271;SDS011;51868;48.812;8.198;2022-09-21T10:56:58;2.50;;;1.10;;
65271;SDS011;51868;48.812;8.198;2022-09-21T10:59:29;7.40;;;1.10;;
65271;SDS011;51868;48.812;8.198;2022-09-21T11:01:58;3.28;;;0.90;;
65271;SDS011;51868;48.812;8.198;2022-09-21T11:04:38;5.35;;;1.20;;
65271;SDS011;51868;48.812;8.198;2022-09-21T11:07:12;4.78;;;1.10;;
65271;SDS011;51868;48.812;8.198;2022-09-21T11:09:47;2.33;;;0.95;;
65271;SDS011;51868;48.812;8.198;2022-09-21T11:12:24;1.83;;;1.00;;
65271;SDS011;51868;48.812;8.198;2022-09-21T11:15:02;3.38;;;1.08;;
65271;SDS011;51868;48.812;8.198;2022-09-21T11:17:40;2.28;;;1.02;;
65271;SDS011;51868;48.812;8.198;2022-09-21T11:20:15;3.75;;;1.20;;
65271;SDS011;51868;48.812;8.198;2022-09-21T11:22:55;3.92;;;1.05;;
65271;SDS011;51868;48.812;8.198;2022-09-21T11:25:36;2.92;;;1.00;;
65271;SDS011;51868;48.812;8.198;2022-09-21T11:28:10;2.20;;;1.00;;
65271;SDS011;51868;48.812;8.198;2022-09-21T11:33:54;2.38;;;1.00;;
65271;SDS011;51868;48.812;8.198;2022-09-21T11:36:37;2.40;;;1.00;;
65271;SDS011;51868;48.812;8.198;2022-09-21T11:39:13;1.50;;;0.93;;
65271;SDS011;51868;48.812;8.198;2022-09-21T11:41:56;3.83;;;1.23;;
65271;SDS011;51868;48.812;8.198;2022-09-21T11:44:48;1.92;;;1.10;;
65271;SDS011;51868;48.812;8.198;2022-09-21T11:47:24;2.17;;;1.00;;
65271;SDS011;51868;48.812;8.198;2022-09-21T11:50:10;1.98;;;1.10;;
65271;SDS011;51868;48.812;8.198;2022-09-21T11:53:08;1.92;;;0.80;;
65271;SDS011;51868;48.812;8.198;2022-09-21T11:55:47;2.28;;;0.77;;
65271;SDS011;51868;48.812;8.198;2022-09-21T11:58:29;2.97;;;0.90;;
65271;SDS011;51868;48.812;8.198;2022-09-21T12:01:07;4.10;;;1.20;;
65271;SDS011;51868;48.812;8.198;2022-09-21T12:03:49;1.00;;;0.80;;
65271;SDS011;51868;48.812;8.198;2022-09-21T12:06:35;3.03;;;0.93;;
65271;SDS011;51868;48.812;8.198;2022-09-21T12:09:15;3.03;;;1.27;;
65271;SDS011;51868;48.812;8.198;2022-09-21T12:12:06;4.30;;;0.98;;
65271;SDS011;51868;48.812;8.198;2022-09-21T12:14:40;3.58;;;0.93;;
65271;SDS011;51868;48.812;8.198;2022-09-21T12:17:18;1.52;;;0.90;;
65271;SDS011;51868;48.812;8.198;2022-09-21T12:19:53;1.80;;;0.93;;
65271;SDS011;51868;48.812;8.198;2022-09-21T12:22:29;0.95;;;0.80;;
65271;SDS011;51868;48.812;8.198;2022-09-21T12:25:01;2.17;;;0.90;;
65271;SDS011;51868;48.812;8.198;2022-09-21T12:27:33;2.25;;;0.77;;
65271;SDS011;51868;48.812;8.198;2022-09-21T12:30:11;3.13;;;1.08;;
65271;SDS011;51868;48.812;8.198;2022-09-21T12:32:45;0.93;;;0.80;;
65271;SDS011;51868;48.812;8.198;2022-09-21T12:35:29;2.67;;;1.02;;
65271;SDS011;51868;48.812;8.198;2022-09-21T12:38:06;1.05;;;0.90;;
65271;SDS011;51868;48.812;8.198;2022-09-21T12:40:44;6.25;;;1.58;;
65271;SDS011;51868;48.812;8.198;2022-09-21T12:43:20;1.02;;;0.85;;
65271;SDS011;51868;48.812;8.198;2022-09-21T12:46:06;1.00;;;0.90;;
65271;SDS011;51868;48.812;8.198;2022-09-21T12:48:40;1.52;;;1.00;;
65271;SDS011;51868;48.812;8.198;2022-09-21T12:51:13;2.40;;;1.15;;
65271;SDS011;51868;48.812;8.198;2022-09-21T12:53:59;3.08;;;0.80;;
65271;SDS011;51868;48.812;8.198;2022-09-21T12:56:35;2.80;;;1.13;;
65271;SDS011;51868;48.812;8.198;2022-09-21T12:59:28;1.88;;;1.10;;
65271;SDS011;51868;48.812;8.198;2022-09-21T13:02:21;2.42;;;0.90;;
65271;SDS011;51868;48.812;8.198;2022-09-21T13:05:01;3.25;;;1.10;;
65271;SDS011;51868;48.812;8.198;2022-09-21T13:07:41;1.40;;;0.80;;
65271;SDS011;51868;48.812;8.198;2022-09-21T13:10:30;1.85;;;0.98;;
65271;SDS011;51868;48.812;8.198;2022-09-21T13:13:07;2.35;;;1.10;;
65271;SDS011;51868;48.812;8.198;2022-09-21T13:15:47;2.00;;;0.77;;
65271;SDS011;51868;48.812;8.198;2022-09-21T13:18:22;0.93;;;0.77;;
65271;SDS011;51868;48.812;8.198;2022-09-21T13:21:13;3.70;;;0.90;;
65271;SDS011;51868;48.812;8.198;2022-09-21T13:23:43;2.03;;;0.80;;
65271;SDS011;51868;48.812;8.198;2022-09-21T13:26:27;2.10;;;0.80;;
65271;SDS011;51868;48.812;8.198;2022-09-21T13:32:06;1.00;;;0.70;;
65271;SDS011;51868;48.812;8.198;2022-09-21T13:34:51;3.10;;;0.80;;
65271;SDS011;51868;48.812;8.198;2022-09-21T13:49:15;1.48;;;0.80;;
65271;SDS011;51868;48.812;8.198;2022-09-21T13:51:55;2.80;;;1.10;;
65271;SDS011;51868;48.812;8.198;2022-09-21T13:54:25;2.50;;;0.90;;
65271;SDS011;51868;48.812;8.198;2022-09-21T13:56:59;2.47;;;0.82;;
65271;SDS011;51868;48.812;8.198;2022-09-21T13:59:43;1.20;;;0.80;;
65271;SDS011;51868;48.812;8.198;2022-09-21T14:02:27;1.58;;;0.90;;
65271;SDS011;51868;48.812;8.198;2022-09-21T14:05:00;1.95;;;0.80;;
65271;SDS011;51868;48.812;8.198;2022-09-21T14:07:34;1.52;;;0.80;;
65271;SDS011;51868;48.812;8.198;2022-09-21T14:10:15;1.02;;;0.75;;
65271;SDS011;51868;48.812;8.198;2022-09-21T14:12:45;2.10;;;1.00;;
65271;SDS011;51868;48.812;8.198;2022-09-21T14:15:30;2.08;;;1.10;;
65271;SDS011;51868;48.812;8.198;2022-09-21T14:18:07;1.00;;;0.73;;
65271;SDS011;51868;48.812;8.198;2022-09-21T14:26:50;0.80;;;0.70;;
65271;SDS011;51868;48.812;8.198;2022-09-21T14:29:26;0.95;;;0.80;;
65271;SDS011;51868;48.812;8.198;2022-09-21T14:32:00;3.67;;;0.90;;
65271;SDS011;51868;48.812;8.198;2022-09-21T14:34:31;3.45;;;0.80;;
65271;SDS011;51868;48.812;8.198;2022-09-21T14:37:03;2.73;;;0.90;;
65271;SDS011;51868;48.812;8.198;2022-09-21T14:39:41;1.00;;;0.88;;
65271;SDS011;51868;48.812;8.198;2022-09-21T14:42:13;1.70;;;0.88;;
65271;SDS011;51868;48.812;8.198;2022-09-21T14:44:45;1.63;;;0.80;;
65271;SDS011;51868;48.812;8.198;2022-09-21T14:50:48;1.38;;;0.93;;
65271;SDS011;51868;48.812;8.198;2022-09-21T14:56:47;1.90;;;1.02;;
65271;SDS011;51868;48.812;8.198;2022-09-21T14:59:29;2.23;;;1.00;;
65271;SDS011;51868;48.812;8.198;2022-09-21T15:02:12;5.32;;;1.17;;
65271;SDS011;51868;48.812;8.198;2022-09-21T15:04:53;2.10;;;1.00;;
65271;SDS011;51868;48.812;8.198;2022-09-21T15:07:30;2.67;;;0.80;;
65271;SDS011;51868;48.812;8.198;2022-09-21T15:10:23;1.95;;;0.90;;
65271;SDS011;51868;48.812;8.198;2022-09-21T15:13:15;4.10;;;1.33;;
65271;SDS011;51868;48.812;8.198;2022-09-21T15:15:59;0.88;;;0.77;;
65271;SDS011;51868;48.812;8.198;2022-09-21T15:18:40;3.13;;;1.17;;
65271;SDS011;51868;48.812;8.198;2022-09-21T15:21:19;2.50;;;0.98;;
65271;SDS011;51868;48.812;8.198;2022-09-21T15:23:49;1.85;;;0.73;;
65271;SDS011;51868;48.812;8.198;2022-09-21T15:26:19;1.52;;;0.80;;
65271;SDS011;51868;48.812;8.198;2022-09-21T15:28:56;2.35;;;0.80;;
65271;SDS011;51868;48.812;8.198;2022-09-21T15:31:41;2.50;;;0.93;;
65271;SDS011;51868;48.812;8.198;2022-09-21T15:34:09;1.60;;;0.90;;
65271;SDS011;51868;48.812;8.198;2022-09-21T15:36:41;1.05;;;0.65;;
65271;SDS011;51868;48.812;8.198;2022-09-21T15:39:23;3.10;;;0.80;;
65271;SDS011;51868;48.812;8.198;2022-09-21T15:45:13;3.20;;;1.20;;
65271;SDS011;51868;48.812;8.198;2022-09-21T15:47:43;1.20;;;0.77;;
65271;SDS011;51868;48.812;8.198;2022-09-21T15:50:11;2.00;;;0.82;;
65271;SDS011;51868;48.812;8.198;2022-09-21T15:52:41;1.20;;;0.60;;
65271;SDS011;51868;48.812;8.198;2022-09-21T15:55:16;1.55;;;0.70;;
65271;SDS011;51868;48.812;8.198;2022-09-21T15:57:47;1.25;;;0.98;;
65271;SDS011;51868;48.812;8.198;2022-09-21T16:00:23;4.07;;;0.70;;
65271;SDS011;51868;48.812;8.198;2022-09-21T16:02:56;0.73;;;0.50;;